createdAt,value
2022-10-09T00:00:18.277Z,100.00
2022-10-09T00:02:48.981Z,100.00
2022-10-09T00:05:21.256Z,100.00
2022-10-09T00:07:52.739Z,100.00
2022-10-09T00:10:22.452Z,100.00
2022-10-09T00:12:53.496Z,100.00
2022-10-09T00:15:29.523Z,100.00
2022-10-09T00:18:00.608Z,100.00
2022-10-09T00:20:32.718Z,100.00
2022-10-09T00:23:04.155Z,100.00
2022-10-09T00:25:34.475Z,100.00
2022-10-09T00:28:05.998Z,100.00
2022-10-09T00:30:42.190Z,100.00
2022-10-09T00:33:13.778Z,100.00
2022-10-09T00:35:44.596Z,100.00
2022-10-09T00:38:15.667Z,100.00
2022-10-09T00:40:47.607Z,100.00
2022-10-09T00:43:18.559Z,100.00
2022-10-09T00:45:53.585Z,100.00
2022-10-09T00:48:25.807Z,100.00
2022-10-09T00:50:59.500Z,100.00
2022-10-09T00:53:31.865Z,100.00
2022-10-09T00:56:02.953Z,100.00
2022-10-09T00:58:35.928Z,100.00
2022-10-09T01:01:09.968Z,100.00
2022-10-09T01:03:40.697Z,100.00
2022-10-09T01:06:16.256Z,100.00
2022-10-09T01:08:51.046Z,100.00
2022-10-09T01:11:29.587Z,100.00
2022-10-09T01:14:01.870Z,100.00
2022-10-09T01:16:37.331Z,100.00
2022-10-09T01:19:16.699Z,100.00
2022-10-09T01:21:49.610Z,100.00
2022-10-09T01:24:25.723Z,100.00
2022-10-09T01:27:14.914Z,100.00
2022-10-09T01:29:47.730Z,100.00
2022-10-09T01:32:21.309Z,100.00
2022-10-09T01:34:52.581Z,100.00
2022-10-09T01:37:24.620Z,100.00
2022-10-09T01:39:55.112Z,100.00
2022-10-09T01:42:29.345Z,100.00
2022-10-09T01:44:59.710Z,100.00
2022-10-09T01:47:29.658Z,100.00
2022-10-09T01:50:02.093Z,100.00
2022-10-09T01:52:46.981Z,100.00
2022-10-09T01:55:30.448Z,100.00
2022-10-09T01:58:11.983Z,100.00
2022-10-09T02:00:49.155Z,100.00
2022-10-09T02:03:21.490Z,100.00
2022-10-09T02:05:53.353Z,100.00
2022-10-09T02:08:26.494Z,100.00
2022-10-09T02:11:02.765Z,100.00
2022-10-09T02:13:38.166Z,100.00
2022-10-09T02:16:14.794Z,100.00
2022-10-09T02:18:46.121Z,100.00
2022-10-09T02:21:18.685Z,100.00
2022-10-09T02:23:49.089Z,100.00
2022-10-09T02:26:25.301Z,100.00
2022-10-09T02:28:58.467Z,100.00
2022-10-09T02:31:30.750Z,100.00
2022-10-09T02:34:02.461Z,100.00
2022-10-09T02:36:33.489Z,100.00
2022-10-09T02:39:04.185Z,100.00
2022-10-09T02:41:34.526Z,100.00
2022-10-09T02:44:08.797Z,100.00
2022-10-09T02:46:40.099Z,100.00
2022-10-09T02:49:10.025Z,100.00
2022-10-09T02:51:40.482Z,100.00
2022-10-09T02:54:10.502Z,100.00
2022-10-09T02:56:41.579Z,100.00
2022-10-09T02:59:14.126Z,100.00
2022-10-09T03:01:47.599Z,100.00
2022-10-09T03:04:17.639Z,100.00
2022-10-09T03:06:48.381Z,100.00
2022-10-09T03:09:18.518Z,100.00
2022-10-09T03:11:49.369Z,100.00
2022-10-09T03:14:22.091Z,100.00
2022-10-09T03:16:52.762Z,100.00
2022-10-09T03:19:22.523Z,100.00
2022-10-09T03:21:53.472Z,100.00
2022-10-09T03:24:23.511Z,100.00
2022-10-09T03:26:54.338Z,100.00
2022-10-09T03:29:27.104Z,100.00
2022-10-09T03:31:58.016Z,100.00
2022-10-09T03:34:28.732Z,100.00
2022-10-09T03:36:58.536Z,100.00
2022-10-09T03:39:29.563Z,100.00
2022-10-09T03:42:00.586Z,100.00
2022-10-09T03:44:33.122Z,100.00
2022-10-09T03:47:04.090Z,100.00
2022-10-09T03:49:42.269Z,100.00
2022-10-09T03:52:15.109Z,100.00
2022-10-09T03:54:45.638Z,100.00
2022-10-09T03:57:16.700Z,100.00
2022-10-09T03:59:49.204Z,100.00
2022-10-09T04:02:20.417Z,100.00
2022-10-09T04:04:50.507Z,100.00
2022-10-09T04:07:20.505Z,100.00
2022-10-09T04:09:51.007Z,100.00
2022-10-09T04:12:22.183Z,100.00
2022-10-09T04:14:55.101Z,100.00
2022-10-09T04:17:26.035Z,100.00
2022-10-09T04:19:56.563Z,100.00
2022-10-09T04:22:27.859Z,100.00
2022-10-09T04:24:58.584Z,100.00
2022-10-09T04:27:29.277Z,100.00
2022-10-09T04:30:02.137Z,100.00
2022-10-09T04:32:33.109Z,100.00
2022-10-09T04:35:03.531Z,100.00
2022-10-09T04:37:38.207Z,100.00
2022-10-09T04:40:08.959Z,100.00
2022-10-09T04:42:40.213Z,100.00
2022-10-09T04:45:13.889Z,100.00
2022-10-09T04:47:44.996Z,100.00
2022-10-09T04:50:15.723Z,100.00
2022-10-09T04:53:00.848Z,100.00
2022-10-09T04:55:31.577Z,100.00
2022-10-09T04:58:03.101Z,100.00
2022-10-09T05:00:36.627Z,100.00
2022-10-09T05:03:07.653Z,100.00
2022-10-09T05:05:37.724Z,100.00
2022-10-09T05:08:07.644Z,100.00
2022-10-09T05:10:37.511Z,100.00
2022-10-09T05:13:11.114Z,100.00
2022-10-09T05:15:44.382Z,100.00
2022-10-09T05:18:15.465Z,100.00
2022-10-09T05:20:46.054Z,100.00
2022-10-09T05:23:17.371Z,100.00
2022-10-09T05:25:47.873Z,100.00
2022-10-09T05:28:18.652Z,100.00
2022-10-09T05:30:51.833Z,100.00
2022-10-09T05:33:22.999Z,100.00
2022-10-09T05:35:54.561Z,100.00
2022-10-09T05:38:25.861Z,100.00
2022-10-09T05:40:57.391Z,100.00
2022-10-09T05:43:29.286Z,100.00
2022-10-09T05:46:07.339Z,100.00
2022-10-09T05:48:40.767Z,100.00
2022-10-09T05:51:11.583Z,100.00
2022-10-09T05:53:41.995Z,100.00
2022-10-09T05:56:16.650Z,100.00
2022-10-09T05:58:47.554Z,100.00
2022-10-09T06:01:20.249Z,100.00
2022-10-09T06:03:54.047Z,100.00
2022-10-09T06:06:25.511Z,100.00
2022-10-09T06:08:58.099Z,100.00
2022-10-09T06:11:28.880Z,100.00
2022-10-09T06:13:59.050Z,100.00
2022-10-09T06:16:33.062Z,100.00
2022-10-09T06:19:02.877Z,100.00
2022-10-09T06:21:32.667Z,100.00
2022-10-09T06:24:03.786Z,100.00
2022-10-09T06:26:36.087Z,100.00
2022-10-09T06:29:06.944Z,100.00
2022-10-09T06:31:40.142Z,100.00
2022-10-09T06:34:09.865Z,100.00
2022-10-09T06:36:43.502Z,100.00
2022-10-09T06:39:14.543Z,100.00
2022-10-09T06:41:44.382Z,100.00
2022-10-09T06:44:26.707Z,100.00
2022-10-09T06:46:59.002Z,100.00
2022-10-09T06:49:28.934Z,100.00
2022-10-09T06:51:58.609Z,100.00
2022-10-09T06:54:28.476Z,100.00
2022-10-09T06:56:58.711Z,100.00
2022-10-09T06:59:29.557Z,100.00
2022-10-09T07:02:04.375Z,100.00
2022-10-09T07:04:34.605Z,100.00
2022-10-09T07:07:04.320Z,100.00
2022-10-09T07:09:34.872Z,100.00
2022-10-09T07:12:04.594Z,100.00
2022-10-09T07:14:35.389Z,100.00
2022-10-09T07:17:07.903Z,100.00
2022-10-09T07:19:37.914Z,100.00
2022-10-09T07:22:11.500Z,100.00
2022-10-09T07:24:41.620Z,100.00
2022-10-09T07:27:11.457Z,100.00
2022-10-09T07:29:42.618Z,100.00
2022-10-09T07:32:16.178Z,100.00
2022-10-09T07:34:46.955Z,100.00
2022-10-09T07:37:16.710Z,100.00
2022-10-09T07:39:46.542Z,100.00
2022-10-09T07:42:16.995Z,100.00
2022-10-09T07:44:47.759Z,100.00
2022-10-09T07:47:20.359Z,100.00
2022-10-09T07:49:50.215Z,100.00
2022-10-09T07:52:19.905Z,100.00
2022-10-09T07:54:49.927Z,100.00
2022-10-09T07:57:19.719Z,100.00
2022-10-09T07:59:49.835Z,100.00
2022-10-09T08:02:22.624Z,100.00
2022-10-09T08:04:52.893Z,100.00
2022-10-09T08:07:23.883Z,100.00
2022-10-09T08:09:53.570Z,100.00
2022-10-09T08:12:24.312Z,100.00
2022-10-09T08:14:54.753Z,100.00
2022-10-09T08:17:28.189Z,100.00
2022-10-09T08:19:58.678Z,100.00
2022-10-09T08:22:33.937Z,100.00
2022-10-09T08:25:04.665Z,100.00
2022-10-09T08:27:34.615Z,100.00
2022-10-09T08:30:04.607Z,100.00
2022-10-09T08:32:37.949Z,100.00
2022-10-09T08:35:09.104Z,100.00
2022-10-09T08:37:40.075Z,100.00
2022-10-09T08:40:11.410Z,100.00
2022-10-09T08:42:46.469Z,100.00
2022-10-09T08:45:18.698Z,100.00
2022-10-09T08:47:56.760Z,100.00
2022-10-09T08:50:28.528Z,100.00
2022-10-09T08:53:03.735Z,100.00
2022-10-09T08:55:39.453Z,100.00
2022-10-09T08:58:09.678Z,100.00
2022-10-09T09:00:43.567Z,100.00
2022-10-09T09:03:38.877Z,100.00
2022-10-09T09:06:12.334Z,100.00
2022-10-09T09:08:46.753Z,100.00
2022-10-09T09:11:21.842Z,97.40
2022-10-09T09:14:00.374Z,93.96
2022-10-09T09:16:36.330Z,93.54
2022-10-09T09:19:21.944Z,89.90
2022-10-09T09:21:54.118Z,87.51
2022-10-09T09:24:36.716Z,81.33
2022-10-09T09:27:07.593Z,83.94
2022-10-09T09:29:42.547Z,84.39
2022-10-09T09:32:18.637Z,81.59
2022-10-09T09:35:00.030Z,84.27
2022-10-09T09:37:30.816Z,85.93
2022-10-09T09:42:57.111Z,88.55
2022-10-09T09:45:30.734Z,89.48
2022-10-09T09:48:03.016Z,89.40
2022-10-09T09:50:50.420Z,88.97
2022-10-09T09:53:29.135Z,86.25
2022-10-09T09:56:00.083Z,85.63
2022-10-09T09:58:37.940Z,86.33
2022-10-09T10:01:22.702Z,86.18
2022-10-09T10:03:53.305Z,86.06
2022-10-09T10:06:33.746Z,87.50
2022-10-09T10:09:05.129Z,85.56
2022-10-09T10:11:36.191Z,84.95
2022-10-09T10:14:09.859Z,86.49
2022-10-09T10:16:41.039Z,85.74
2022-10-09T10:19:22.083Z,87.57
2022-10-09T10:21:58.329Z,87.46
2022-10-09T10:24:30.816Z,85.36
2022-10-09T10:27:03.079Z,89.24
2022-10-09T10:29:36.731Z,84.97
2022-10-09T10:32:12.654Z,87.55
2022-10-09T10:34:44.695Z,86.95
2022-10-09T10:37:26.323Z,87.70
2022-10-09T10:40:00.247Z,83.52
2022-10-09T10:42:39.897Z,84.17
2022-10-09T10:45:15.759Z,83.13
2022-10-09T10:47:50.155Z,84.47
2022-10-09T10:50:22.534Z,85.18
2022-10-09T10:53:03.044Z,80.78
2022-10-09T10:55:38.596Z,81.39
2022-10-09T10:58:14.872Z,82.22
2022-10-09T11:00:50.170Z,80.56
2022-10-09T11:03:34.595Z,80.34
2022-10-09T11:06:09.895Z,80.87
2022-10-09T11:08:49.015Z,77.59
2022-10-09T11:11:23.509Z,78.18
2022-10-09T11:14:05.807Z,78.90
2022-10-09T11:16:50.342Z,78.26
2022-10-09T11:19:31.456Z,77.92
2022-10-09T11:22:05.871Z,77.05
2022-10-09T11:24:45.992Z,78.64
2022-10-09T11:27:19.308Z,80.93
2022-10-09T11:29:56.287Z,77.96
2022-10-09T11:32:30.667Z,78.33
2022-10-09T11:35:05.031Z,75.10
2022-10-09T11:37:39.379Z,74.45
2022-10-09T11:40:19.677Z,75.40
2022-10-09T11:42:50.986Z,75.72
2022-10-09T11:45:27.481Z,77.30
2022-10-09T11:48:02.315Z,76.01
2022-10-09T11:50:51.450Z,76.21
2022-10-09T11:53:23.661Z,78.27
2022-10-09T11:56:07.214Z,79.18
2022-10-09T11:58:37.843Z,80.98
2022-10-09T12:01:16.516Z,80.11
2022-10-09T12:03:46.748Z,75.77
2022-10-09T12:06:21.023Z,76.56
2022-10-09T12:08:58.030Z,76.74
2022-10-09T12:11:32.438Z,76.81
2022-10-09T12:14:03.814Z,75.14
2022-10-09T12:16:39.724Z,74.31
2022-10-09T12:19:16.873Z,74.91
2022-10-09T12:21:53.036Z,75.97
2022-10-09T12:24:25.611Z,76.10
2022-10-09T12:27:03.330Z,76.79
2022-10-09T12:29:36.658Z,77.89
2022-10-09T12:32:09.367Z,78.87
2022-10-09T12:34:45.129Z,80.60
2022-10-09T12:37:18.051Z,81.33
2022-10-09T12:39:49.803Z,81.93
2022-10-09T12:42:24.543Z,82.93
2022-10-09T12:44:57.974Z,81.34
2022-10-09T12:47:30.067Z,80.86
2022-10-09T12:50:02.063Z,79.64
2022-10-09T12:52:34.173Z,78.95
2022-10-09T12:55:05.421Z,74.60
2022-10-09T12:57:38.544Z,77.05
2022-10-09T13:00:09.347Z,76.17
2022-10-09T13:02:39.759Z,76.18
2022-10-09T13:05:11.344Z,76.81
2022-10-09T13:07:47.820Z,79.89
2022-10-09T13:10:20.627Z,81.66
2022-10-09T13:12:56.119Z,81.48
2022-10-09T13:15:40.261Z,80.42
2022-10-09T13:18:24.208Z,83.29
2022-10-09T13:21:01.462Z,82.79
2022-10-09T13:23:33.355Z,84.36
2022-10-09T13:26:07.004Z,84.72
2022-10-09T13:28:40.405Z,85.12
2022-10-09T13:31:11.526Z,84.26
2022-10-09T13:33:42.591Z,83.93
2022-10-09T13:36:13.346Z,84.60
2022-10-09T13:38:43.757Z,87.32
2022-10-09T13:41:14.554Z,84.85
2022-10-09T13:43:49.946Z,83.97
2022-10-09T13:46:22.034Z,83.66
2022-10-09T13:48:54.760Z,81.82
2022-10-09T13:51:24.716Z,78.16
2022-10-09T13:53:54.834Z,78.27
2022-10-09T13:56:24.756Z,81.99
2022-10-09T13:58:57.354Z,80.81
2022-10-09T14:01:28.117Z,78.90
2022-10-09T14:03:58.793Z,82.26
2022-10-09T14:06:28.856Z,79.09
2022-10-09T14:08:58.737Z,78.85
2022-10-09T14:11:29.097Z,80.24
2022-10-09T14:14:03.149Z,82.01
2022-10-09T14:16:34.481Z,81.91
2022-10-09T14:19:07.176Z,82.05
2022-10-09T14:21:40.011Z,81.75
2022-10-09T14:24:10.204Z,83.22
2022-10-09T14:26:41.400Z,82.40
2022-10-09T14:29:14.546Z,83.23
2022-10-09T14:31:45.641Z,84.69
2022-10-09T14:34:16.761Z,83.92
2022-10-09T14:36:46.847Z,84.59
2022-10-09T14:39:16.950Z,84.95
2022-10-09T14:41:46.743Z,87.09
2022-10-09T14:44:19.399Z,91.00
2022-10-09T14:46:50.049Z,95.06
2022-10-09T14:49:19.761Z,96.63
2022-10-09T14:51:50.115Z,97.92
2022-10-09T14:54:20.768Z,99.39
2022-10-09T14:56:50.764Z,100.00
2022-10-09T14:59:24.773Z,100.00
2022-10-09T15:01:56.738Z,100.00
2022-10-09T15:04:27.732Z,100.00
2022-10-09T15:06:57.869Z,100.00
2022-10-09T15:09:29.175Z,100.00
2022-10-09T15:11:59.751Z,100.00
2022-10-09T15:14:33.225Z,100.00
2022-10-09T15:17:03.910Z,100.00
2022-10-09T15:19:35.046Z,100.00
2022-10-09T15:22:05.084Z,100.00
2022-10-09T15:24:36.099Z,100.00
2022-10-09T15:27:07.342Z,100.00
2022-10-09T15:29:41.465Z,100.00
2022-10-09T15:32:11.775Z,100.00
2022-10-09T15:34:43.041Z,100.00
2022-10-09T15:37:14.095Z,100.00
2022-10-09T15:39:45.139Z,100.00
2022-10-09T15:42:16.428Z,100.00
2022-10-09T15:44:49.843Z,100.00
2022-10-09T15:47:39.367Z,100.00
2022-10-09T15:50:11.842Z,100.00
2022-10-09T15:52:41.916Z,100.00
2022-10-09T15:55:13.177Z,100.00
2022-10-09T15:57:43.767Z,100.00
2022-10-09T16:00:17.744Z,100.00
2022-10-09T16:02:48.031Z,100.00
2022-10-09T16:05:21.887Z,100.00
2022-10-09T16:07:51.806Z,100.00
2022-10-09T16:10:22.930Z,100.00
2022-10-09T16:12:52.819Z,100.00
2022-10-09T16:15:27.003Z,100.00
2022-10-09T16:17:56.793Z,100.00
2022-10-09T16:20:26.469Z,100.00
2022-10-09T16:22:56.138Z,100.00
2022-10-09T16:25:25.871Z,100.00
2022-10-09T16:27:55.580Z,100.00
2022-10-09T16:30:28.140Z,100.00
2022-10-09T16:32:58.186Z,100.00
2022-10-09T16:35:28.739Z,100.00
2022-10-09T16:37:58.470Z,100.00
2022-10-09T16:40:49.964Z,100.00
2022-10-09T16:43:20.285Z,100.00
2022-10-09T16:46:00.661Z,100.00
2022-10-09T16:48:33.095Z,100.00
2022-10-09T16:51:02.776Z,100.00
2022-10-09T16:53:33.798Z,100.00
2022-10-09T16:56:09.403Z,100.00
2022-10-09T16:58:39.225Z,100.00
2022-10-09T17:01:10.541Z,100.00
2022-10-09T17:03:43.310Z,100.00
2022-10-09T17:06:14.273Z,100.00
2022-10-09T17:08:44.579Z,100.00
2022-10-09T17:11:16.432Z,100.00
2022-10-09T17:13:46.856Z,100.00
2022-10-09T17:16:19.430Z,100.00
2022-10-09T17:18:54.089Z,100.00
2022-10-09T17:21:27.925Z,100.00
2022-10-09T17:24:01.739Z,100.00
2022-10-09T17:26:31.857Z,100.00
2022-10-09T17:29:01.915Z,100.00
2022-10-09T17:31:31.943Z,100.00
2022-10-09T17:34:05.113Z,100.00
2022-10-09T17:36:36.137Z,100.00
2022-10-09T17:39:06.736Z,100.00
2022-10-09T17:41:36.509Z,100.00
2022-10-09T17:44:06.247Z,100.00
2022-10-09T17:46:36.090Z,100.00
2022-10-09T17:49:08.627Z,100.00
2022-10-09T17:51:39.859Z,100.00
2022-10-09T17:54:13.151Z,100.00
2022-10-09T17:56:44.201Z,100.00
2022-10-09T17:59:15.746Z,100.00
2022-10-09T18:01:45.895Z,100.00
2022-10-09T18:04:20.215Z,100.00
2022-10-09T18:06:52.999Z,100.00
2022-10-09T18:09:22.831Z,100.00
2022-10-09T18:11:56.446Z,100.00
2022-10-09T18:14:26.851Z,100.00
2022-10-09T18:16:57.835Z,100.00
2022-10-09T18:19:33.552Z,100.00
2022-10-09T18:22:03.850Z,100.00
2022-10-09T18:24:35.006Z,100.00
2022-10-09T18:27:04.856Z,100.00
2022-10-09T18:29:35.724Z,100.00
2022-10-09T18:32:06.009Z,100.00
2022-10-09T18:34:46.256Z,100.00
2022-10-09T18:37:19.909Z,100.00
2022-10-09T18:39:50.130Z,100.00
2022-10-09T18:42:21.341Z,100.00
2022-10-09T18:44:52.199Z,100.00
2022-10-09T18:47:27.648Z,100.00
2022-10-09T18:50:10.347Z,100.00
2022-10-09T18:52:42.559Z,100.00
2022-10-09T18:55:15.358Z,100.00
2022-10-09T18:57:46.161Z,100.00
2022-10-09T19:00:19.332Z,100.00
2022-10-09T19:02:49.844Z,100.00
2022-10-09T19:05:25.034Z,100.00
2022-10-09T19:07:59.505Z,100.00
2022-10-09T19:10:29.830Z,100.00
2022-10-09T19:13:00.915Z,100.00
2022-10-09T19:15:31.038Z,100.00
2022-10-09T19:18:01.932Z,100.00
2022-10-09T19:20:35.390Z,100.00
2022-10-09T19:23:05.836Z,100.00
2022-10-09T19:25:36.901Z,100.00
2022-10-09T19:28:06.989Z,100.00
2022-10-09T19:30:38.008Z,100.00
2022-10-09T19:33:07.905Z,100.00
2022-10-09T19:35:46.732Z,100.00
2022-10-09T19:38:17.432Z,100.00
2022-10-09T19:40:51.356Z,100.00
2022-10-09T19:43:23.642Z,100.00
2022-10-09T19:46:03.404Z,100.00
2022-10-09T19:48:34.034Z,100.00
2022-10-09T19:51:07.892Z,100.00
2022-10-09T19:53:38.276Z,100.00
2022-10-09T19:56:12.467Z,100.00
2022-10-09T19:58:43.736Z,100.00
2022-10-09T20:01:14.527Z,100.00
2022-10-09T20:03:45.805Z,100.00
2022-10-09T20:06:18.600Z,100.00
2022-10-09T20:08:50.754Z,100.00
2022-10-09T20:11:21.168Z,100.00
2022-10-09T20:13:55.791Z,100.00
2022-10-09T20:16:29.932Z,100.00
2022-10-09T20:18:59.913Z,100.00
2022-10-09T20:21:34.549Z,100.00
2022-10-09T20:24:06.330Z,100.00
2022-10-09T20:26:42.162Z,100.00
2022-10-09T20:29:13.391Z,100.00
2022-10-09T20:31:44.337Z,100.00
2022-10-09T20:34:14.881Z,100.00
2022-10-09T20:39:24.926Z,100.00
2022-10-09T20:41:55.863Z,100.00
2022-10-09T20:44:26.242Z,100.00
2022-10-09T20:46:56.991Z,100.00
2022-10-09T20:49:27.134Z,100.00
2022-10-09T20:51:59.667Z,100.00
2022-10-09T20:54:31.141Z,100.00
2022-10-09T20:57:00.868Z,100.00
2022-10-09T20:59:31.358Z,100.00
2022-10-09T21:02:01.857Z,100.00
2022-10-09T21:04:32.294Z,100.00
2022-10-09T21:07:05.461Z,100.00
2022-10-09T21:09:36.367Z,100.00
2022-10-09T21:12:07.242Z,100.00
2022-10-09T21:14:39.193Z,100.00
2022-10-09T21:17:09.846Z,100.00
2022-10-09T21:19:40.870Z,100.00
2022-10-09T21:22:13.487Z,100.00
2022-10-09T21:24:44.341Z,100.00
2022-10-09T21:27:14.889Z,100.00
2022-10-09T21:29:45.037Z,100.00
2022-10-09T21:32:15.282Z,100.00
2022-10-09T21:34:45.946Z,100.00
2022-10-09T21:37:22.135Z,100.00
2022-10-09T21:39:53.524Z,100.00
2022-10-09T21:42:24.218Z,100.00
2022-10-09T21:44:55.041Z,100.00
2022-10-09T21:47:28.240Z,100.00
2022-10-09T21:49:58.912Z,100.00
2022-10-09T21:52:31.530Z,100.00
2022-10-09T21:55:02.430Z,100.00
2022-10-09T21:57:33.254Z,100.00
2022-10-09T22:00:04.037Z,100.00
2022-10-09T22:02:34.940Z,100.00
2022-10-09T22:05:04.928Z,100.00
2022-10-09T22:07:37.462Z,100.00
2022-10-09T22:10:09.486Z,100.00
2022-10-09T22:12:39.992Z,100.00
2022-10-09T22:15:11.610Z,100.00
2022-10-09T22:17:41.817Z,100.00
2022-10-09T22:20:13.193Z,100.00
2022-10-09T22:22:45.531Z,100.00
2022-10-09T22:25:16.828Z,100.00
2022-10-09T22:27:47.165Z,100.00
2022-10-09T22:30:18.065Z,100.00
2022-10-09T22:32:48.286Z,100.00
2022-10-09T22:35:19.530Z,100.00
2022-10-09T22:37:52.646Z,100.00
2022-10-09T22:40:26.812Z,100.00
2022-10-09T22:42:57.437Z,100.00
2022-10-09T22:45:28.604Z,100.00
2022-10-09T22:47:59.515Z,100.00
2022-10-09T22:50:30.135Z,100.00
2022-10-09T22:53:02.513Z,100.00
2022-10-09T22:55:33.358Z,100.00
2022-10-09T22:58:03.960Z,100.00
2022-10-09T23:00:35.503Z,100.00
2022-10-09T23:03:05.578Z,100.00
2022-10-09T23:05:36.759Z,100.00
2022-10-09T23:08:09.587Z,100.00
2022-10-09T23:10:40.789Z,100.00
2022-10-09T23:13:13.183Z,100.00
2022-10-09T23:15:44.592Z,100.00
2022-10-09T23:18:14.956Z,100.00
2022-10-09T23:20:45.708Z,100.00
2022-10-09T23:23:18.498Z,100.00
2022-10-09T23:25:49.376Z,100.00
2022-10-09T23:28:20.017Z,100.00
2022-10-09T23:30:52.378Z,100.00
2022-10-09T23:33:22.934Z,100.00
2022-10-09T23:35:52.931Z,100.00
2022-10-09T23:38:25.568Z,100.00
2022-10-09T23:40:59.731Z,100.00
2022-10-09T23:43:31.288Z,100.00
2022-10-09T23:46:03.086Z,100.00
2022-10-09T23:48:32.962Z,100.00
2022-10-09T23:51:05.323Z,100.00
2022-10-09T23:53:39.068Z,100.00
2022-10-09T23:56:16.980Z,100.00
2022-10-09T23:58:47.299Z,100.00
